sensor_id;sensor_type;location;lat;lon;timestamp;pressure;altitude;pressure_sealevel;temperature;humidity
64876;BME280;51369;49.862;9.908;2023-02-11T00:01:35;100249.47;;;2.10;73.26
64876;BME280;51369;49.862;9.908;2023-02-11T00:04:02;100245.06;;;2.12;73.45
64876;BME280;51369;49.862;9.908;2023-02-11T00:06:28;100242.44;;;2.13;72.85
64876;BME280;51369;49.862;9.908;2023-02-11T00:08:55;100247.88;;;2.18;73.71
64876;BME280;51369;49.862;9.908;2023-02-11T00:11:22;100242.56;;;2.19;73.75
64876;BME280;51369;49.862;9.908;2023-02-11T00:13:49;100230.22;;;2.23;72.70
64876;BME280;51369;49.862;9.908;2023-02-11T00:16:18;100238.25;;;2.26;72.74
64876;BME280;51369;49.862;9.908;2023-02-11T00:18:44;100232.13;;;2.30;73.29
64876;BME280;51369;49.862;9.908;2023-02-11T00:21:12;100228.63;;;2.33;74.03
64876;BME280;51369;49.862;9.908;2023-02-11T00:23:38;100226.03;;;2.36;72.88
64876;BME280;51369;49.862;9.908;2023-02-11T00:26:14;100232.25;;;2.36;73.42
64876;BME280;51369;49.862;9.908;2023-02-11T00:28:41;100240.28;;;2.38;72.12
64876;BME280;51369;49.862;9.908;2023-02-11T00:31:09;100241.19;;;2.38;72.87
64876;BME280;51369;49.862;9.908;2023-02-11T00:33:35;100234.94;;;2.38;72.83
64876;BME280;51369;49.862;9.908;2023-02-11T00:36:05;100230.50;;;2.38;73.03
64876;BME280;51369;49.862;9.908;2023-02-11T00:38:31;100233.22;;;2.40;73.69
64876;BME280;51369;49.862;9.908;2023-02-11T00:40:56;100239.41;;;2.39;72.64
64876;BME280;51369;49.862;9.908;2023-02-11T00:43:24;100235.91;;;2.41;72.72
64876;BME280;51369;49.862;9.908;2023-02-11T00:45:49;100243.03;;;2.42;72.71
64876;BME280;51369;49.862;9.908;2023-02-11T00:48:15;100242.16;;;2.43;72.39
64876;BME280;51369;49.862;9.908;2023-02-11T00:50:40;100241.28;;;2.44;72.54
64876;BME280;51369;49.862;9.908;2023-02-11T00:53:05;100241.34;;;2.47;72.67
64876;BME280;51369;49.862;9.908;2023-02-11T00:55:31;100241.34;;;2.47;73.22
64876;BME280;51369;49.862;9.908;2023-02-11T00:57:57;100243.16;;;2.48;72.74
64876;BME280;51369;49.862;9.908;2023-02-11T01:00:24;100243.19;;;2.50;72.36
64876;BME280;51369;49.862;9.908;2023-02-11T01:02:50;100248.53;;;2.51;73.30
64876;BME280;51369;49.862;9.908;2023-02-11T01:05:15;100240.56;;;2.53;72.30
64876;BME280;51369;49.862;9.908;2023-02-11T01:07:40;100246.88;;;2.56;72.47
64876;BME280;51369;49.862;9.908;2023-02-11T01:10:06;100233.59;;;2.59;71.74
64876;BME280;51369;49.862;9.908;2023-02-11T01:12:31;100236.25;;;2.59;71.80
64876;BME280;51369;49.862;9.908;2023-02-11T01:14:57;100231.81;;;2.60;72.36
64876;BME280;51369;49.862;9.908;2023-02-11T01:17:22;100221.16;;;2.60;71.73
64876;BME280;51369;49.862;9.908;2023-02-11T01:19:48;100221.16;;;2.60;73.13
64876;BME280;51369;49.862;9.908;2023-02-11T01:22:13;100210.50;;;2.60;72.55
64876;BME280;51369;49.862;9.908;2023-02-11T01:24:39;100204.22;;;2.58;72.53
64876;BME280;51369;49.862;9.908;2023-02-11T01:27:06;100192.63;;;2.54;72.45
64876;BME280;51369;49.862;9.908;2023-02-11T01:29:32;100196.16;;;2.53;73.14
64876;BME280;51369;49.862;9.908;2023-02-11T01:31:57;100192.56;;;2.51;72.83
64876;BME280;51369;49.862;9.908;2023-02-11T01:34:24;100203.19;;;2.50;71.74
64876;BME280;51369;49.862;9.908;2023-02-11T01:36:49;100183.63;;;2.49;72.68
64876;BME280;51369;49.862;9.908;2023-02-11T01:39:15;100183.56;;;2.46;73.10
64876;BME280;51369;49.862;9.908;2023-02-11T01:41:40;100169.31;;;2.44;72.40
64876;BME280;51369;49.862;9.908;2023-02-11T01:44:35;100170.19;;;2.43;73.30
64876;BME280;51369;49.862;9.908;2023-02-11T01:47:01;100162.25;;;2.46;73.01
64876;BME280;51369;49.862;9.908;2023-02-11T01:52:38;100151.59;;;2.48;72.38
64876;BME280;51369;49.862;9.908;2023-02-11T01:55:09;100161.44;;;2.50;73.30
64876;BME280;51369;49.862;9.908;2023-02-11T01:58:03;100149.91;;;2.53;73.30
64876;BME280;51369;49.862;9.908;2023-02-11T02:00:36;100153.50;;;2.53;72.95
64876;BME280;51369;49.862;9.908;2023-02-11T02:03:11;100144.63;;;2.56;72.53
64876;BME280;51369;49.862;9.908;2023-02-11T02:05:50;100138.41;;;2.55;72.57
64876;BME280;51369;49.862;9.908;2023-02-11T02:08:44;100134.00;;;2.57;72.88
64876;BME280;51369;49.862;9.908;2023-02-11T02:11:11;100143.00;;;2.64;73.43
64876;BME280;51369;49.862;9.908;2023-02-11T02:13:36;100143.09;;;2.69;73.91
64876;BME280;51369;49.862;9.908;2023-02-11T02:16:04;100145.81;;;2.72;73.01
64876;BME280;51369;49.862;9.908;2023-02-11T02:38:22;100114.25;;;2.99;73.50
64876;BME280;51369;49.862;9.908;2023-02-11T02:40:54;100108.03;;;3.00;73.37
64876;BME280;51369;49.862;9.908;2023-02-11T02:43:23;100110.69;;;3.00;73.14
64876;BME280;51369;49.862;9.908;2023-02-11T02:45:50;100120.50;;;3.01;73.17
64876;BME280;51369;49.862;9.908;2023-02-11T02:50:55;100134.72;;;3.00;73.29
64876;BME280;51369;49.862;9.908;2023-02-11T03:01:25;100132.00;;;2.97;73.79
64876;BME280;51369;49.862;9.908;2023-02-11T03:04:39;100134.66;;;2.97;73.63
64876;BME280;51369;49.862;9.908;2023-02-11T03:07:24;100139.13;;;2.98;74.15
64876;BME280;51369;49.862;9.908;2023-02-11T03:10:07;100136.47;;;2.98;73.39
64876;BME280;51369;49.862;9.908;2023-02-11T03:12:33;100140.97;;;3.02;73.48
64876;BME280;51369;49.862;9.908;2023-02-11T03:15:02;100132.09;;;3.03;73.31
64876;BME280;51369;49.862;9.908;2023-02-11T03:17:30;100138.34;;;3.05;73.51
64876;BME280;51369;49.862;9.908;2023-02-11T03:19:58;100125.91;;;3.06;73.38
64876;BME280;51369;49.862;9.908;2023-02-11T03:22:28;100117.03;;;3.07;74.29
64876;BME280;51369;49.862;9.908;2023-02-11T03:24:55;100116.16;;;3.09;73.13
64876;BME280;51369;49.862;9.908;2023-02-11T03:27:28;100113.50;;;3.09;73.53
64876;BME280;51369;49.862;9.908;2023-02-11T03:32:31;100119.75;;;3.11;73.70
64876;BME280;51369;49.862;9.908;2023-02-11T03:35:02;100138.47;;;3.13;73.33
64876;BME280;51369;49.862;9.908;2023-02-11T03:37:35;100140.25;;;3.14;73.46
64876;BME280;51369;49.862;9.908;2023-02-11T03:40:15;100133.16;;;3.14;73.73
64876;BME280;51369;49.862;9.908;2023-02-11T03:42:59;100138.53;;;3.17;73.77
64876;BME280;51369;49.862;9.908;2023-02-11T03:45:27;100126.13;;;3.21;73.30
64876;BME280;51369;49.862;9.908;2023-02-11T03:47:59;100125.22;;;3.20;72.95
64876;BME280;51369;49.862;9.908;2023-02-11T03:50:26;100111.00;;;3.20;74.01
64876;BME280;51369;49.862;9.908;2023-02-11T03:52:54;100093.19;;;3.19;73.46
64876;BME280;51369;49.862;9.908;2023-02-11T03:55:22;100092.25;;;3.17;73.80
64876;BME280;51369;49.862;9.908;2023-02-11T03:57:47;100089.59;;;3.17;73.21
64876;BME280;51369;49.862;9.908;2023-02-11T04:00:13;100086.94;;;3.17;73.90
64876;BME280;51369;49.862;9.908;2023-02-11T04:02:40;100087.81;;;3.16;73.89
64876;BME280;51369;49.862;9.908;2023-02-11T04:05:06;100096.69;;;3.16;74.15
64876;BME280;51369;49.862;9.908;2023-02-11T04:07:32;100094.06;;;3.18;73.03
64876;BME280;51369;49.862;9.908;2023-02-11T04:09:58;100082.47;;;3.17;73.14
64876;BME280;51369;49.862;9.908;2023-02-11T04:12:24;100078.00;;;3.15;72.85
64876;BME280;51369;49.862;9.908;2023-02-11T04:14:49;100075.31;;;3.13;73.59
64876;BME280;51369;49.862;9.908;2023-02-11T04:17:15;100080.59;;;3.10;73.71
64876;BME280;51369;49.862;9.908;2023-02-11T04:19:40;100068.13;;;3.08;73.49
64876;BME280;51369;49.862;9.908;2023-02-11T04:22:06;100076.06;;;3.05;74.35
64876;BME280;51369;49.862;9.908;2023-02-11T04:24:32;100075.19;;;3.04;73.44
64876;BME280;51369;49.862;9.908;2023-02-11T04:26:57;100070.72;;;3.03;74.22
64876;BME280;51369;49.862;9.908;2023-02-11T04:29:23;100059.13;;;3.01;73.55
64876;BME280;51369;49.862;9.908;2023-02-11T04:31:48;100060.91;;;3.01;74.23
64876;BME280;51369;49.862;9.908;2023-02-11T04:34:14;100060.91;;;3.02;74.34
64876;BME280;51369;49.862;9.908;2023-02-11T04:36:40;100062.69;;;3.02;73.65
64876;BME280;51369;49.862;9.908;2023-02-11T04:39:06;100063.59;;;3.02;74.94
64876;BME280;51369;49.862;9.908;2023-02-11T04:41:31;100087.66;;;3.05;74.23
64876;BME280;51369;49.862;9.908;2023-02-11T04:43:57;100089.44;;;3.06;74.07
64876;BME280;51369;49.862;9.908;2023-02-11T04:46:22;100088.59;;;3.09;74.23
64876;BME280;51369;49.862;9.908;2023-02-11T04:48:47;100079.72;;;3.10;74.36
64876;BME280;51369;49.862;9.908;2023-02-11T04:51:13;100082.41;;;3.11;73.64
64876;BME280;51369;49.862;9.908;2023-02-11T04:53:38;100073.50;;;3.12;73.69
64876;BME280;51369;49.862;9.908;2023-02-11T04:56:04;100071.75;;;3.14;74.23
64876;BME280;51369;49.862;9.908;2023-02-11T04:58:29;100056.66;;;3.15;73.61
64876;BME280;51369;49.862;9.908;2023-02-11T05:00:55;100060.22;;;3.15;74.21
64876;BME280;51369;49.862;9.908;2023-02-11T05:03:20;100051.34;;;3.16;73.92
64876;BME280;51369;49.862;9.908;2023-02-11T05:05:46;100045.97;;;3.15;74.34
64876;BME280;51369;49.862;9.908;2023-02-11T05:08:11;100053.97;;;3.13;73.62
64876;BME280;51369;49.862;9.908;2023-02-11T05:10:37;100067.31;;;3.13;73.15
64876;BME280;51369;49.862;9.908;2023-02-11T05:13:03;100057.50;;;3.12;73.80
64876;BME280;51369;49.862;9.908;2023-02-11T05:15:28;100061.03;;;3.10;73.87
64876;BME280;51369;49.862;9.908;2023-02-11T05:17:54;100062.81;;;3.09;73.60
64876;BME280;51369;49.862;9.908;2023-02-11T05:20:19;100061.00;;;3.08;73.57
64876;BME280;51369;49.862;9.908;2023-02-11T05:22:45;100048.53;;;3.07;73.75
64876;BME280;51369;49.862;9.908;2023-02-11T05:25:10;100026.28;;;3.07;73.41
64876;BME280;51369;49.862;9.908;2023-02-11T05:27:36;100034.28;;;3.05;73.61
64876;BME280;51369;49.862;9.908;2023-02-11T05:30:01;100059.22;;;3.07;74.11
64876;BME280;51369;49.862;9.908;2023-02-11T05:32:27;100060.09;;;3.08;73.77
64876;BME280;51369;49.862;9.908;2023-02-11T05:34:52;100077.91;;;3.09;73.39
64876;BME280;51369;49.862;9.908;2023-02-11T05:37:17;100076.13;;;3.09;73.28
64876;BME280;51369;49.862;9.908;2023-02-11T05:39:42;100069.06;;;3.11;73.25
64876;BME280;51369;49.862;9.908;2023-02-11T05:42:08;100077.09;;;3.13;74.43
64876;BME280;51369;49.862;9.908;2023-02-11T05:44:33;100065.50;;;3.12;73.74
64876;BME280;51369;49.862;9.908;2023-02-11T05:46:59;100052.19;;;3.14;73.32
64876;BME280;51369;49.862;9.908;2023-02-11T05:49:24;100048.63;;;3.13;73.54
64876;BME280;51369;49.862;9.908;2023-02-11T05:51:49;100041.47;;;3.11;74.50
64876;BME280;51369;49.862;9.908;2023-02-11T05:54:15;100036.13;;;3.09;73.72
64876;BME280;51369;49.862;9.908;2023-02-11T05:56:41;100034.31;;;3.08;73.93
64876;BME280;51369;49.862;9.908;2023-02-11T05:59:06;100044.97;;;3.07;74.18
64876;BME280;51369;49.862;9.908;2023-02-11T06:01:32;100033.34;;;3.03;73.89
64876;BME280;51369;49.862;9.908;2023-02-11T06:03:57;100038.66;;;3.00;73.83
64876;BME280;51369;49.862;9.908;2023-02-11T06:06:23;100055.50;;;2.98;73.86
64876;BME280;51369;49.862;9.908;2023-02-11T06:08:48;100051.06;;;2.97;74.57
64876;BME280;51369;49.862;9.908;2023-02-11T06:11:15;100043.94;;;2.97;73.85
64876;BME280;51369;49.862;9.908;2023-02-11T06:13:40;100048.44;;;3.00;73.30
64876;BME280;51369;49.862;9.908;2023-02-11T06:16:05;100051.06;;;2.98;74.02
64876;BME280;51369;49.862;9.908;2023-02-11T06:18:31;100056.44;;;3.01;73.79
64876;BME280;51369;49.862;9.908;2023-02-11T06:20:58;100069.78;;;3.00;74.03
64876;BME280;51369;49.862;9.908;2023-02-11T06:23:24;100051.06;;;2.98;73.74
64876;BME280;51369;49.862;9.908;2023-02-11T06:25:50;100044.88;;;2.99;74.17
64876;BME280;51369;49.862;9.908;2023-02-11T06:28:16;100043.94;;;2.97;73.58
64876;BME280;51369;49.862;9.908;2023-02-11T06:30:41;100042.19;;;2.99;73.29
64876;BME280;51369;49.862;9.908;2023-02-11T06:33:06;100049.31;;;2.99;74.04
64876;BME280;51369;49.862;9.908;2023-02-11T06:35:32;100042.19;;;2.98;74.73
64876;BME280;51369;49.862;9.908;2023-02-11T06:38:00;100051.97;;;2.99;73.86
64876;BME280;51369;49.862;9.908;2023-02-11T06:40:25;100053.75;;;2.98;73.95
64876;BME280;51369;49.862;9.908;2023-02-11T06:42:51;100057.31;;;2.99;73.72
64876;BME280;51369;49.862;9.908;2023-02-11T06:45:16;100056.44;;;3.00;73.93
64876;BME280;51369;49.862;9.908;2023-02-11T06:47:42;100049.31;;;3.00;74.42
64876;BME280;51369;49.862;9.908;2023-02-11T06:50:11;100055.56;;;3.01;73.53
64876;BME280;51369;49.862;9.908;2023-02-11T06:52:38;100054.69;;;3.02;74.37
64876;BME280;51369;49.862;9.908;2023-02-11T06:55:03;100051.13;;;3.03;74.04
64876;BME280;51369;49.862;9.908;2023-02-11T06:57:29;100041.38;;;3.03;73.93
64876;BME280;51369;49.862;9.908;2023-02-11T06:59:55;100040.50;;;3.04;73.55
64876;BME280;51369;49.862;9.908;2023-02-11T07:02:20;100047.63;;;3.05;73.49
64876;BME280;51369;49.862;9.908;2023-02-11T07:04:45;100060.09;;;3.06;73.17
64876;BME280;51369;49.862;9.908;2023-02-11T07:07:11;100053.91;;;3.09;73.97
64876;BME280;51369;49.862;9.908;2023-02-11T07:09:36;100052.16;;;3.12;73.42
64876;BME280;51369;49.862;9.908;2023-02-11T07:12:01;100050.41;;;3.14;73.23
64876;BME280;51369;49.862;9.908;2023-02-11T07:14:27;100036.25;;;3.18;74.17
64876;BME280;51369;49.862;9.908;2023-02-11T07:16:52;100032.72;;;3.21;74.41
64876;BME280;51369;49.862;9.908;2023-02-11T07:19:18;100034.53;;;3.23;74.11
64876;BME280;51369;49.862;9.908;2023-02-11T07:21:43;100040.81;;;3.27;73.58
64876;BME280;51369;49.862;9.908;2023-02-11T07:24:09;100025.72;;;3.31;73.02
64876;BME280;51369;49.862;9.908;2023-02-11T07:26:34;100033.75;;;3.34;73.50
64876;BME280;51369;49.862;9.908;2023-02-11T07:29:00;100043.59;;;3.38;73.05
64876;BME280;51369;49.862;9.908;2023-02-11T07:31:28;100055.22;;;3.41;73.83
64876;BME280;51369;49.862;9.908;2023-02-11T07:33:55;100067.72;;;3.45;73.36
64876;BME280;51369;49.862;9.908;2023-02-11T07:36:21;100058.84;;;3.49;73.99
64876;BME280;51369;49.862;9.908;2023-02-11T07:38:47;100049.09;;;3.53;73.36
64876;BME280;51369;49.862;9.908;2023-02-11T07:41:14;100037.56;;;3.55;73.51
64876;BME280;51369;49.862;9.908;2023-02-11T07:43:41;100041.13;;;3.56;72.60
64876;BME280;51369;49.862;9.908;2023-02-11T07:46:09;100051.81;;;3.56;73.66
64876;BME280;51369;49.862;9.908;2023-02-11T07:48:34;100064.28;;;3.57;73.05
64876;BME280;51369;49.862;9.908;2023-02-11T07:51:12;100064.28;;;3.57;73.06
64876;BME280;51369;49.862;9.908;2023-02-11T07:53:38;100064.31;;;3.60;73.38
64876;BME280;51369;49.862;9.908;2023-02-11T07:56:04;100066.13;;;3.63;72.57
64876;BME280;51369;49.862;9.908;2023-02-11T07:58:30;100066.16;;;3.64;73.10
64876;BME280;51369;49.862;9.908;2023-02-11T08:01:04;100067.97;;;3.68;72.81
64876;BME280;51369;49.862;9.908;2023-02-11T08:03:30;100073.38;;;3.73;72.78
64876;BME280;51369;49.862;9.908;2023-02-11T08:05:56;100070.75;;;3.77;72.38
64876;BME280;51369;49.862;9.908;2023-02-11T08:08:22;100071.75;;;3.85;72.77
64876;BME280;51369;49.862;9.908;2023-02-11T08:10:47;100068.28;;;3.96;73.39
64876;BME280;51369;49.862;9.908;2023-02-11T08:13:13;100084.47;;;4.09;73.85
64876;BME280;51369;49.862;9.908;2023-02-11T08:15:38;100089.06;;;4.22;72.88
64876;BME280;51369;49.862;9.908;2023-02-11T08:18:04;100094.53;;;4.33;72.72
64876;BME280;51369;49.862;9.908;2023-02-11T08:20:29;100090.16;;;4.41;72.95
64876;BME280;51369;49.862;9.908;2023-02-11T08:22:54;100090.22;;;4.50;72.43
64876;BME280;51369;49.862;9.908;2023-02-11T08:25:20;100075.13;;;4.57;72.13
64876;BME280;51369;49.862;9.908;2023-02-11T08:27:45;100068.06;;;4.64;71.96
64876;BME280;51369;49.862;9.908;2023-02-11T08:30:11;100072.56;;;4.71;72.24
64876;BME280;51369;49.862;9.908;2023-02-11T08:32:37;100073.50;;;4.77;71.54
64876;BME280;51369;49.862;9.908;2023-02-11T08:35:04;100085.19;;;4.87;71.70
64876;BME280;51369;49.862;9.908;2023-02-11T08:37:32;100085.25;;;4.95;71.25
64876;BME280;51369;49.862;9.908;2023-02-11T08:39:57;100082.59;;;5.01;70.95
64876;BME280;51369;49.862;9.908;2023-02-11T08:42:23;100082.66;;;5.08;71.45
64876;BME280;51369;49.862;9.908;2023-02-11T08:44:48;100087.19;;;5.17;71.23
64876;BME280;51369;49.862;9.908;2023-02-11T08:47:14;100090.78;;;5.27;70.88
64876;BME280;51369;49.862;9.908;2023-02-11T08:49:39;100097.06;;;5.35;71.19
64876;BME280;51369;49.862;9.908;2023-02-11T08:52:07;100100.72;;;5.47;70.66
64876;BME280;51369;49.862;9.908;2023-02-11T08:54:32;100103.44;;;5.58;70.57
64876;BME280;51369;49.862;9.908;2023-02-11T08:56:58;100106.19;;;5.70;70.20
64876;BME280;51369;49.862;9.908;2023-02-11T08:59:24;100103.56;;;5.84;70.27
64876;BME280;51369;49.862;9.908;2023-02-11T09:01:49;100107.22;;;5.97;69.55
64876;BME280;51369;49.862;9.908;2023-02-11T09:04:15;100106.38;;;6.08;69.14
64876;BME280;51369;49.862;9.908;2023-02-11T09:06:40;100105.50;;;6.18;68.94
64876;BME280;51369;49.862;9.908;2023-02-11T09:09:10;100110.88;;;6.28;68.83
64876;BME280;51369;49.862;9.908;2023-02-11T09:11:36;100109.13;;;6.36;69.25
64876;BME280;51369;49.862;9.908;2023-02-11T09:14:02;100101.97;;;6.44;68.77
64876;BME280;51369;49.862;9.908;2023-02-11T09:16:31;100092.13;;;6.52;68.87
64876;BME280;51369;49.862;9.908;2023-02-11T09:18:57;100090.34;;;6.59;69.20
64876;BME280;51369;49.862;9.908;2023-02-11T09:21:23;100098.41;;;6.63;69.06
64876;BME280;51369;49.862;9.908;2023-02-11T09:23:48;100090.38;;;6.66;69.02
64876;BME280;51369;49.862;9.908;2023-02-11T09:26:17;100099.31;;;6.71;69.30
64876;BME280;51369;49.862;9.908;2023-02-11T09:28:42;100087.69;;;6.75;68.66
64876;BME280;51369;49.862;9.908;2023-02-11T09:31:10;100093.94;;;6.79;68.44
64876;BME280;51369;49.862;9.908;2023-02-11T09:33:38;100092.16;;;6.81;68.54
64876;BME280;51369;49.862;9.908;2023-02-11T09:36:04;100087.69;;;6.84;68.64
64876;BME280;51369;49.862;9.908;2023-02-11T09:38:30;100094.84;;;6.89;68.49
64876;BME280;51369;49.862;9.908;2023-02-11T09:40:56;100090.31;;;6.95;68.54
64876;BME280;51369;49.862;9.908;2023-02-11T09:43:45;100093.91;;;7.02;68.29
64876;BME280;51369;49.862;9.908;2023-02-11T09:46:14;100094.78;;;7.13;68.34
64876;BME280;51369;49.862;9.908;2023-02-11T09:48:42;100092.09;;;7.21;68.11
64876;BME280;51369;49.862;9.908;2023-02-11T09:54:25;100098.31;;;7.36;68.04
64876;BME280;51369;49.862;9.908;2023-02-11T09:56:52;100101.00;;;7.42;68.80
64876;BME280;51369;49.862;9.908;2023-02-11T09:59:18;100096.50;;;7.46;68.15
64876;BME280;51369;49.862;9.908;2023-02-11T10:02:01;100084.84;;;7.50;67.81
64876;BME280;51369;49.862;9.908;2023-02-11T10:04:40;100082.13;;;7.56;68.17
64876;BME280;51369;49.862;9.908;2023-02-11T10:07:18;100088.38;;;7.64;67.74
64876;BME280;51369;49.862;9.908;2023-02-11T10:10:12;100083.00;;;7.67;67.52
64876;BME280;51369;49.862;9.908;2023-02-11T10:23:51;100100.81;;;7.94;67.00
64876;BME280;51369;49.862;9.908;2023-02-11T10:26:18;100104.34;;;8.04;67.29
64876;BME280;51369;49.862;9.908;2023-02-11T10:28:46;100110.56;;;8.16;67.08
64876;BME280;51369;49.862;9.908;2023-02-11T10:31:27;100108.72;;;8.25;66.50
64876;BME280;51369;49.862;9.908;2023-02-11T10:34:02;100123.97;;;8.33;66.59
64876;BME280;51369;49.862;9.908;2023-02-11T10:36:33;100119.41;;;8.43;66.21
64876;BME280;51369;49.862;9.908;2023-02-11T10:39:01;100113.97;;;8.51;66.71
64876;BME280;51369;49.862;9.908;2023-02-11T10:41:36;100109.44;;;8.57;66.11
64876;BME280;51369;49.862;9.908;2023-02-11T10:44:05;100113.81;;;8.67;66.46
64876;BME280;51369;49.862;9.908;2023-02-11T10:46:33;100121.84;;;8.76;66.06
64876;BME280;51369;49.862;9.908;2023-02-11T10:49:00;100116.38;;;8.86;65.73
64876;BME280;51369;49.862;9.908;2023-02-11T10:51:31;100114.53;;;8.94;65.41
64876;BME280;51369;49.862;9.908;2023-02-11T10:56:35;100102.69;;;9.11;65.89
64876;BME280;51369;49.862;9.908;2023-02-11T10:59:19;100112.50;;;9.19;66.29
64876;BME280;51369;49.862;9.908;2023-02-11T11:02:00;100108.91;;;9.18;64.89
64876;BME280;51369;49.862;9.908;2023-02-11T11:09:51;100116.03;;;9.27;64.22
64876;BME280;51369;49.862;9.908;2023-02-11T11:12:27;100110.63;;;9.27;64.31
64876;BME280;51369;49.862;9.908;2023-02-11T11:15:00;100101.63;;;9.28;65.86
64876;BME280;51369;49.862;9.908;2023-02-11T11:17:26;100105.22;;;9.30;64.78
64876;BME280;51369;49.862;9.908;2023-02-11T11:25:40;100107.91;;;9.30;64.98
64876;BME280;51369;49.862;9.908;2023-02-11T11:28:19;100104.34;;;9.26;64.92
64876;BME280;51369;49.862;9.908;2023-02-11T11:30:44;100109.72;;;9.26;64.95
64876;BME280;51369;49.862;9.908;2023-02-11T11:33:18;100099.00;;;9.22;64.65
64876;BME280;51369;49.862;9.908;2023-02-11T11:36:01;100106.19;;;9.21;64.16
64876;BME280;51369;49.862;9.908;2023-02-11T11:38:29;100098.09;;;9.23;64.52
64876;BME280;51369;49.862;9.908;2023-02-11T11:41:24;100100.81;;;9.21;64.15
64876;BME280;51369;49.862;9.908;2023-02-11T11:44:00;100102.59;;;9.22;64.64
64876;BME280;51369;49.862;9.908;2023-02-11T11:46:33;100101.72;;;9.20;64.54
64876;BME280;51369;49.862;9.908;2023-02-11T11:49:16;100096.34;;;9.19;64.07
64876;BME280;51369;49.862;9.908;2023-02-11T11:52:08;100097.25;;;9.18;63.93
64876;BME280;51369;49.862;9.908;2023-02-11T11:54:36;100098.13;;;9.18;64.21
64876;BME280;51369;49.862;9.908;2023-02-11T11:57:10;100095.44;;;9.17;64.22
64876;BME280;51369;49.862;9.908;2023-02-11T11:59:36;100110.72;;;9.18;63.93
64876;BME280;51369;49.862;9.908;2023-02-11T12:07:58;100100.88;;;9.12;64.67
64876;BME280;51369;49.862;9.908;2023-02-11T12:10:55;100096.38;;;9.14;64.36
64876;BME280;51369;49.862;9.908;2023-02-11T12:22:02;100093.66;;;9.17;63.81
64876;BME280;51369;49.862;9.908;2023-02-11T12:25:11;100095.44;;;9.17;64.39
64876;BME280;51369;49.862;9.908;2023-02-11T12:27:55;100089.16;;;9.16;64.48
64876;BME280;51369;49.862;9.908;2023-02-11T12:33:35;100079.28;;;9.17;64.14
64876;BME280;51369;49.862;9.908;2023-02-11T12:36:24;100078.31;;;9.24;64.52
64876;BME280;51369;49.862;9.908;2023-02-11T12:39:48;100072.88;;;9.28;64.98
64876;BME280;51369;49.862;9.908;2023-02-11T12:42:00;100071.94;;;9.32;64.20
64876;BME280;51369;49.862;9.908;2023-02-11T12:47:31;100076.38;;;9.36;64.26
64876;BME280;51369;49.862;9.908;2023-02-11T12:50:03;100072.75;;;9.40;64.91
64876;BME280;51369;49.862;9.908;2023-02-11T12:55:13;100081.56;;;9.55;65.26
64876;BME280;51369;49.862;9.908;2023-02-11T12:57:42;100077.91;;;9.60;65.28
64876;BME280;51369;49.862;9.908;2023-02-11T13:00:18;100069.78;;;9.63;64.66
64876;BME280;51369;49.862;9.908;2023-02-11T13:03:06;100061.66;;;9.66;63.70
64876;BME280;51369;49.862;9.908;2023-02-11T13:05:57;100060.69;;;9.73;64.59
64876;BME280;51369;49.862;9.908;2023-02-11T13:08:37;100051.69;;;9.73;63.94
64876;BME280;51369;49.862;9.908;2023-02-11T13:11:07;100046.28;;;9.74;64.02
64876;BME280;51369;49.862;9.908;2023-02-11T13:13:50;100047.22;;;9.70;64.90
64876;BME280;51369;49.862;9.908;2023-02-11T13:21:32;100056.31;;;9.63;63.64
64876;BME280;51369;49.862;9.908;2023-02-11T13:26:56;100045.59;;;9.56;64.26
64876;BME280;51369;49.862;9.908;2023-02-11T13:29:32;100045.66;;;9.53;64.59
64876;BME280;51369;49.862;9.908;2023-02-11T13:32:12;100037.59;;;9.50;64.87
64876;BME280;51369;49.862;9.908;2023-02-11T13:37:27;100034.03;;;9.46;64.88
64876;BME280;51369;49.862;9.908;2023-02-11T13:42:50;100043.13;;;9.36;64.46
64876;BME280;51369;49.862;9.908;2023-02-11T13:45:22;100039.56;;;9.34;64.47
64876;BME280;51369;49.862;9.908;2023-02-11T13:47:56;100058.53;;;9.26;64.73
64876;BME280;51369;49.862;9.908;2023-02-11T13:50:23;100045.06;;;9.23;65.00
64876;BME280;51369;49.862;9.908;2023-02-11T13:52:56;100048.72;;;9.18;65.38
64876;BME280;51369;49.862;9.908;2023-02-11T13:55:24;100050.53;;;9.17;65.44
64876;BME280;51369;49.862;9.908;2023-02-11T13:58:15;100056.88;;;9.11;65.40
64876;BME280;51369;49.862;9.908;2023-02-11T14:00:44;100057.75;;;9.13;64.56
64876;BME280;51369;49.862;9.908;2023-02-11T14:14:27;100055.22;;;8.98;66.64
64876;BME280;51369;49.862;9.908;2023-02-11T14:19:38;100058.88;;;8.91;66.04
64876;BME280;51369;49.862;9.908;2023-02-11T14:22:16;100053.50;;;8.88;66.68
64876;BME280;51369;49.862;9.908;2023-02-11T14:24:52;100054.41;;;8.87;67.09
64876;BME280;51369;49.862;9.908;2023-02-11T14:30:05;100063.47;;;8.78;67.25
64876;BME280;51369;49.862;9.908;2023-02-11T14:35:58;100072.50;;;8.71;67.52
64876;BME280;51369;49.862;9.908;2023-02-11T14:41:27;100069.84;;;8.67;67.66
64876;BME280;51369;49.862;9.908;2023-02-11T14:43:57;100084.22;;;8.67;67.58
64876;BME280;51369;49.862;9.908;2023-02-11T14:46:24;100086.94;;;8.66;67.10
64876;BME280;51369;49.862;9.908;2023-02-11T14:48:54;100092.34;;;8.64;67.16
64876;BME280;51369;49.862;9.908;2023-02-11T14:51:40;100093.25;;;8.63;67.43
64876;BME280;51369;49.862;9.908;2023-02-11T14:54:15;100096.84;;;8.64;67.26
64876;BME280;51369;49.862;9.908;2023-02-11T14:56:41;100094.16;;;8.64;67.45
64876;BME280;51369;49.862;9.908;2023-02-11T14:59:20;100086.97;;;8.61;67.63
64876;BME280;51369;49.862;9.908;2023-02-11T15:01:51;100090.56;;;8.62;67.64
64876;BME280;51369;49.862;9.908;2023-02-11T15:04:22;100101.34;;;8.62;68.05
64876;BME280;51369;49.862;9.908;2023-02-11T15:06:48;100095.94;;;8.62;67.82
64876;BME280;51369;49.862;9.908;2023-02-11T15:09:20;100102.25;;;8.59;68.27
64876;BME280;51369;49.862;9.908;2023-02-11T15:11:52;100111.25;;;8.57;67.52
64876;BME280;51369;49.862;9.908;2023-02-11T15:14:26;100103.19;;;8.52;68.31
64876;BME280;51369;49.862;9.908;2023-02-11T15:16:53;100106.81;;;8.50;67.66